Oak Grove, Louisiana
Current Conditions -  °F | °C
As of 6:15 AM on Sunday 25 Jan 2015 (Local Time) from KBQP Reporting Station
Clear Clear  
Wind Chill: 33°   Ceiling: Unl
Heat Index: 37°   Visibility: 10mi
Dew Point: 34°   Wind: 5mph
Humidity: 91%   Direction: 170°S
Pressure: 29.92"   Gusts: NA
Location:  32.86°N, 91.39°W
Report Text: KBQP 251215Z AUTO 17004KT 10SM CLR 03/01 A2992 RMK AO2 T00250012
Loading
Personal Weather Stations






























Interactive Weather Map New forecast layout! Learn more

10-Day Weather Forecast

Advertisements
Track Severe Weather on mobile